Dades meteomassalio
Diari Summary for Noviembre 18, 2017 Units:  Metric    English   Both
« Previous Day
Next Day »
Diari Semanal Mensual Anual Personalitzat
  Maxima: Minima: Mijana:
Temperatura: 16.1 °C -1.7 °C 5.6 °C
Rosada: 5.4 °C -5.7 °C -0.5 °C
Humitat: 85 % 47 % 66 %
Velocitat del vent: 25.9 km/h 0.0 km/h 5.2 km/h
Racha vent: 25.9 km/h - -
Vent:- - NW
Pressio: 1026.0 hPa 1022.9 hPa -
Pluja: 0.0 mm    
Historical Graphs
 
 
Tabular Data for Noviembre 18, 2017
Time Temperature Dew Point Pressure Wind Wind Speed Wind Gust Humidity Rainfall Rate (Hourly) solar Conditions
00:03 1.7 °C -4.0 °C 1024.3 hPa Calm     66 % 0.0 mm 0.0 W/m2 CLR
00:08 1.7 °C -4.0 °C 1024.3 hPa Calm     66 % 0.0 mm 0.0 W/m2 CLR
00:13 2.2 °C -3.7 °C 1024.3 hPa Calm     65 % 0.0 mm 0.0 W/m2 CLR
00:18 2.2 °C -3.5 °C 1024.3 hPa Calm     66 % 0.0 mm 0.0 W/m2 CLR
00:23 1.7 °C -3.8 °C 1024.6 hPa Calm     67 % 0.0 mm 0.0 W/m2 CLR
00:28 1.7 °C -3.6 °C 1024.3 hPa Calm     68 % 0.0 mm 0.0 W/m2 CLR
00:33 1.7 °C -3.4 °C 1024.3 hPa Calm     69 % 0.0 mm 0.0 W/m2 CLR
00:38 1.7 °C -3.4 °C 1024.6 hPa Calm     69 % 0.0 mm 0.0 W/m2 CLR
00:43 1.7 °C -3.6 °C 1024.3 hPa Calm     68 % 0.0 mm 0.0 W/m2 CLR
00:48 1.7 °C -3.4 °C 1024.3 hPa Calm     69 % 0.0 mm 0.0 W/m2 CLR
00:53 1.7 °C -3.6 °C 1024.3 hPa Calm     68 % 0.0 mm 0.0 W/m2 CLR
00:58 1.1 °C -4.3 °C 1024.3 hPa Calm     67 % 0.0 mm 0.0 W/m2 CLR
01:03 1.1 °C -4.2 °C 1024.3 hPa Calm     68 % 0.0 mm 0.0 W/m2 CLR
01:08 0.6 °C -4.1 °C 1024.3 hPa Calm     71 % 0.0 mm 0.0 W/m2 CLR
01:13 0.6 °C -4.1 °C 1024.3 hPa Calm     71 % 0.0 mm 0.0 W/m2 CLR
01:18 0.0 °C -4.6 °C 1024.3 hPa Calm     71 % 0.0 mm 0.0 W/m2 CLR
01:23 0.0 °C -4.4 °C 1024.3 hPa Calm     72 % 0.0 mm 0.0 W/m2 CLR
01:28 0.0 °C -4.1 °C 1024.3 hPa Calm     74 % 0.0 mm 0.0 W/m2 CLR
01:33 0.0 °C -4.4 °C 1024.3 hPa Calm     72 % 0.0 mm 0.0 W/m2 CLR
01:38 -0.6 °C -5.2 °C 1024.3 hPa Calm     71 % 0.0 mm 0.0 W/m2 CLR
01:43 -0.6 °C -5.2 °C 1023.9 hPa Calm     71 % 0.0 mm 0.0 W/m2 CLR
01:48 -0.6 °C -5.2 °C 1023.9 hPa Calm     71 % 0.0 mm 0.0 W/m2 CLR
01:53 -0.6 °C -5.2 °C 1023.9 hPa Calm     71 % 0.0 mm 0.0 W/m2 CLR
01:58 -0.6 °C -5.2 °C 1023.9 hPa Calm     71 % 0.0 mm 0.0 W/m2 CLR
02:03 -0.6 °C -5.3 °C 1023.9 hPa Calm     70 % 0.0 mm 0.0 W/m2 CLR
02:08 -0.6 °C -5.3 °C 1023.6 hPa Calm     70 % 0.0 mm 0.0 W/m2 CLR
02:13 -0.6 °C -5.6 °C 1023.6 hPa Calm     69 % 0.0 mm 0.0 W/m2 CLR
02:18 -0.6 °C -5.7 °C 1023.6 hPa Calm     68 % 0.0 mm 0.0 W/m2 CLR
02:23 -0.6 °C -5.7 °C 1023.6 hPa Calm     68 % 0.0 mm 0.0 W/m2 CLR
02:28 -0.6 °C -5.3 °C 1023.6 hPa Calm     70 % 0.0 mm 0.0 W/m2 CLR
02:33 -0.6 °C -5.3 °C 1023.6 hPa Calm     70 % 0.0 mm 0.0 W/m2 CLR
02:39 -0.6 °C -5.3 °C 1023.6 hPa Calm     70 % 0.0 mm 0.0 W/m2 CLR
02:44 -0.6 °C -5.2 °C 1023.6 hPa Calm     71 % 0.0 mm 0.0 W/m2 CLR
02:49 -0.6 °C -5.0 °C 1023.6 hPa Calm     72 % 0.0 mm 0.0 W/m2 CLR
02:54 -0.6 °C -4.8 °C 1023.6 hPa Calm     73 % 0.0 mm 0.0 W/m2 CLR
02:59 -1.1 °C -5.3 °C 1023.6 hPa Calm     73 % 0.0 mm 0.0 W/m2 CLR
03:04 -0.6 °C -5.0 °C 1023.6 hPa Calm     72 % 0.0 mm 0.0 W/m2 CLR
03:09 -0.6 °C -5.0 °C 1023.9 hPa Calm     72 % 0.0 mm 0.0 W/m2 CLR
03:14 -0.6 °C -5.0 °C 1023.9 hPa Calm     72 % 0.0 mm 0.0 W/m2 CLR
03:19 -0.6 °C -5.0 °C 1023.9 hPa Calm     72 % 0.0 mm 0.0 W/m2 CLR
03:24 -0.6 °C -5.0 °C 1023.9 hPa Calm     72 % 0.0 mm 0.0 W/m2 CLR
03:29 -0.6 °C -5.0 °C 1023.9 hPa Calm     72 % 0.0 mm 0.0 W/m2 CLR
03:34 -0.6 °C -5.0 °C 1023.9 hPa Calm     72 % 0.0 mm 0.0 W/m2 CLR
03:39 -0.6 °C -4.8 °C 1023.9 hPa Calm     73 % 0.0 mm 0.0 W/m2 CLR
03:44 0.0 °C -4.4 °C 1023.9 hPa Calm     72 % 0.0 mm 0.0 W/m2 CLR
03:54 0.0 °C -4.4 °C 1023.9 hPa Calm     72 % 0.0 mm 0.0 W/m2 CLR
03:59 0.6 °C -4.1 °C 1023.9 hPa Calm     71 % 0.0 mm 0.0 W/m2 CLR
04:04 0.6 °C -4.1 °C 1023.9 hPa Calm     71 % 0.0 mm 0.0 W/m2 CLR
04:09 0.6 °C -3.9 °C 1023.9 hPa Calm     72 % 0.0 mm 0.0 W/m2 CLR
04:14 0.6 °C -3.9 °C 1023.9 hPa Calm     72 % 0.0 mm 0.0 W/m2 CLR
04:20 0.6 °C -3.7 °C 1023.6 hPa Calm     73 % 0.0 mm 0.0 W/m2 CLR
04:22 0.6 °C -3.7 °C 1023.6 hPa Calm     73 % 0.0 mm 0.0 W/m2 CLR
04:23 0.6 °C -3.7 °C 1023.6 hPa Calm     73 % 0.0 mm 0.0 W/m2 CLR
04:24 0.6 °C -3.7 °C 1023.6 hPa Calm     73 % 0.0 mm 0.0 W/m2 CLR
04:27 0.0 °C -4.3 °C 1023.6 hPa Calm     73 % 0.0 mm 0.0 W/m2 CLR
04:32 0.0 °C -4.3 °C 1023.6 hPa Calm     73 % 0.0 mm 0.0 W/m2 CLR
04:33 0.0 °C -4.1 °C 1023.6 hPa Calm     74 % 0.0 mm 0.0 W/m2 CLR
04:37 0.0 °C -4.1 °C 1023.9 hPa Calm     74 % 0.0 mm 0.0 W/m2 CLR
04:42 0.0 °C -3.9 °C 1023.9 hPa Calm     75 % 0.0 mm 0.0 W/m2 CLR
04:47 0.0 °C -3.6 °C 1023.9 hPa Calm     77 % 0.0 mm 0.0 W/m2 CLR
04:52 0.0 °C -3.7 °C 1023.9 hPa Calm     76 % 0.0 mm 0.0 W/m2 CLR
04:57 0.0 °C -3.6 °C 1023.9 hPa Calm     77 % 0.0 mm 0.0 W/m2 CLR
05:02 0.0 °C -3.4 °C 1023.9 hPa Calm     78 % 0.0 mm 0.0 W/m2 CLR
05:07 0.0 °C -3.6 °C 1023.9 hPa Calm     77 % 0.0 mm 0.0 W/m2 CLR
05:12 0.0 °C -3.6 °C 1023.9 hPa Calm     77 % 0.0 mm 0.0 W/m2 CLR
05:17 -0.6 °C -3.9 °C 1023.9 hPa Calm     78 % 0.0 mm 0.0 W/m2 CLR
05:22 0.0 °C -3.6 °C 1023.9 hPa Calm     77 % 0.0 mm 0.0 W/m2 CLR
05:27 0.0 °C -3.4 °C 1023.9 hPa Calm     78 % 0.0 mm 0.0 W/m2 CLR
05:32 0.0 °C -3.4 °C 1023.9 hPa Calm     78 % 0.0 mm 0.0 W/m2 CLR
05:37 0.0 °C -3.4 °C 1023.9 hPa Calm     78 % 0.0 mm 0.0 W/m2 CLR
05:42 0.0 °C -3.2 °C 1023.9 hPa Calm     79 % 0.0 mm 0.0 W/m2 CLR
05:47 0.0 °C -3.2 °C 1023.9 hPa Calm     79 % 0.0 mm 0.0 W/m2 CLR
05:52 -0.6 °C -3.8 °C 1023.9 hPa Calm     79 % 0.0 mm 0.0 W/m2 CLR
05:57 0.0 °C -3.2 °C 1023.9 hPa Calm     79 % 0.0 mm 0.0 W/m2 CLR
06:02 0.0 °C -3.2 °C 1023.9 hPa Calm     79 % 0.0 mm 0.0 W/m2 CLR
06:07 0.0 °C -2.7 °C 1023.9 hPa Calm     82 % 0.0 mm 0.0 W/m2 CLR
06:12 0.0 °C -2.9 °C 1023.9 hPa Calm     81 % 0.0 mm 0.0 W/m2 CLR
06:17 0.0 °C -3.2 °C 1023.9 hPa Calm     79 % 0.0 mm 0.0 W/m2 CLR
06:27 -0.6 °C -3.4 °C 1023.9 hPa Calm     81 % 0.0 mm 0.0 W/m2 CLR
06:32 -0.6 °C -3.3 °C 1023.9 hPa Calm     82 % 0.0 mm 0.0 W/m2 CLR
06:37 -0.6 °C -3.1 °C 1023.9 hPa Calm     83 % 0.0 mm 0.0 W/m2 CLR
06:42 -0.6 °C -3.3 °C 1023.9 hPa Calm     82 % 0.0 mm 0.0 W/m2 CLR
06:47 -0.6 °C -3.3 °C 1023.9 hPa Calm     82 % 0.0 mm 0.0 W/m2 CLR
06:52 -0.6 °C -3.9 °C 1023.9 hPa Calm     78 % 0.0 mm 0.0 W/m2 CLR
06:57 -0.6 °C -3.8 °C 1023.9 hPa Calm     79 % 0.0 mm 0.0 W/m2 CLR
07:02 -1.1 °C -4.1 °C 1023.9 hPa Calm     80 % 0.0 mm 0.0 W/m2 CLR
07:07 -0.6 °C -3.1 °C 1023.9 hPa Calm     83 % 0.0 mm 0.0 W/m2 CLR
07:13 -0.6 °C -3.4 °C 1023.9 hPa Calm     81 % 0.0 mm 0.0 W/m2 CLR
07:18 -0.6 °C -3.4 °C 1023.9 hPa Calm     81 % 0.0 mm 0.0 W/m2 CLR
07:23 -0.6 °C -3.4 °C 1023.9 hPa Calm     81 % 0.0 mm 0.0 W/m2 CLR
07:28 -1.1 °C -3.9 °C 1023.9 hPa Calm     81 % 0.0 mm 0.0 W/m2 CLR
07:33 -1.1 °C -3.9 °C 1023.9 hPa Calm     81 % 0.0 mm 0.0 W/m2 CLR
07:38 -1.1 °C -4.3 °C 1023.9 hPa Calm     79 % 0.0 mm 0.0 W/m2 CLR
07:43 -1.1 °C -4.8 °C 1023.9 hPa Calm     76 % 0.0 mm 0.0 W/m2 OVC
07:48 -1.7 °C -5.3 °C 1023.9 hPa Calm     76 % 0.0 mm 0.0 W/m2 OVC
07:53 -1.7 °C -5.3 °C 1023.9 hPa Calm     76 % 0.0 mm 5.0 W/m2 OVC
07:58 -1.7 °C -5.7 °C 1023.9 hPa Calm     74 % 0.0 mm 7.0 W/m2 OVC
08:03 -1.7 °C -5.2 °C 1024.3 hPa Calm     77 % 0.0 mm 9.0 W/m2 OVC
08:08 -1.1 °C -4.1 °C 1024.3 hPa Calm     80 % 0.0 mm 12.0 W/m2 OVC
08:13 -1.1 °C -4.1 °C 1024.3 hPa Calm     80 % 0.0 mm 14.0 W/m2 OVC
08:18 -0.6 °C -3.6 °C 1024.3 hPa Calm     80 % 0.0 mm 16.0 W/m2 OVC
08:23 -0.6 °C -3.8 °C 1024.3 hPa Calm     79 % 0.0 mm 23.0 W/m2 OVC
08:28 0.0 °C -3.2 °C 1024.3 hPa Calm     79 % 0.0 mm 33.0 W/m2 OVC
08:33 0.0 °C -3.2 °C 1024.6 hPa Calm     79 % 0.0 mm 39.0 W/m2 OVC
08:38 0.0 °C -3.4 °C 1024.6 hPa Calm     78 % 0.0 mm 54.0 W/m2 OVC
08:43 0.0 °C -3.7 °C 1024.3 hPa Calm     76 % 0.0 mm 65.0 W/m2 OVC
08:48 0.6 °C -3.6 °C 1024.6 hPa Calm     74 % 0.0 mm 62.0 W/m2 OVC
08:53 0.6 °C -3.9 °C 1024.6 hPa Calm     72 % 0.0 mm 81.0 W/m2 BKN
08:58 0.6 °C -3.9 °C 1024.6 hPa Calm     72 % 0.0 mm 93.0 W/m2 SCT
09:03 0.6 °C -3.6 °C 1024.6 hPa Calm     74 % 0.0 mm 98.0 W/m2 CLR
09:08 1.1 °C -3.2 °C 1024.6 hPa Calm     73 % 0.0 mm 109.0 W/m2 CLR
09:13 1.1 °C -3.4 °C 1024.6 hPa Calm     72 % 0.0 mm 107.0 W/m2 CLR
09:18 1.7 °C -3.2 °C 1024.6 hPa Calm     70 % 0.0 mm 167.0 W/m2 CLR
09:23 2.2 °C -3.1 °C 1024.6 hPa Calm     68 % 0.0 mm 181.0 W/m2 CLR
09:28 2.8 °C -2.6 °C 1024.6 hPa Calm   0.2 km/h 68 % 0.0 mm 144.0 W/m2 CLR
09:33 3.3 °C -2.0 °C 1024.6 hPa NW 18.5 km/h 18.5 km/h 68 % 0.0 mm 213.0 W/m2 CLR
09:38 3.9 °C -2.3 °C 1024.6 hPa NNW 18.5 km/h 18.5 km/h 64 % 0.0 mm 227.0 W/m2 CLR
09:43 3.9 °C -2.7 °C 1024.6 hPa NNW 14.8 km/h 14.8 km/h 62 % 0.0 mm 241.0 W/m2 CLR
09:48 5.0 °C -1.9 °C 1024.6 hPa WNW 13.0 km/h 13.0 km/h 61 % 0.0 mm 253.0 W/m2 CLR
09:53 6.1 °C -1.1 °C 1024.9 hPa NW 16.1 km/h 16.1 km/h 60 % 0.0 mm 264.0 W/m2 CLR
09:58 8.3 °C 0.8 °C 1024.9 hPa NNW 16.7 km/h 16.7 km/h 59 % 0.0 mm 278.0 W/m2 CLR
10:03 9.4 °C 1.6 °C 1024.6 hPa WNW 13.0 km/h 13.0 km/h 58 % 0.0 mm 288.0 W/m2 CLR
10:08 10.6 °C 2.4 °C 1024.9 hPa WNW 18.5 km/h 18.5 km/h 57 % 0.0 mm 297.0 W/m2 CLR
10:13 11.1 °C 2.7 °C 1024.9 hPa NW 11.3 km/h 11.3 km/h 56 % 0.0 mm 309.0 W/m2 CLR
10:18 11.1 °C 2.7 °C 1024.9 hPa West 22.2 km/h 22.2 km/h 56 % 0.0 mm 322.0 W/m2 CLR
10:23 11.7 °C 3.2 °C 1024.9 hPa NNW 24.1 km/h 24.1 km/h 56 % 0.0 mm 332.0 W/m2 CLR
10:28 11.7 °C 3.2 °C 1024.9 hPa NW 24.1 km/h 24.1 km/h 56 % 0.0 mm 341.0 W/m2 CLR
10:33 11.7 °C 2.9 °C 1024.9 hPa NW 18.5 km/h 18.5 km/h 55 % 0.0 mm 352.0 W/m2 CLR
10:38 12.2 °C 3.2 °C 1024.9 hPa NW 20.4 km/h 20.4 km/h 54 % 0.0 mm 360.0 W/m2 CLR
10:43 12.2 °C 3.2 °C 1024.9 hPa NW 22.2 km/h 22.2 km/h 54 % 0.0 mm 369.0 W/m2 CLR
10:48 12.2 °C 3.2 °C 1024.9 hPa NW 24.1 km/h 24.1 km/h 54 % 0.0 mm 380.0 W/m2 CLR
10:53 12.2 °C 3.2 °C 1024.9 hPa NW 20.4 km/h 20.4 km/h 54 % 0.0 mm 387.0 W/m2 CLR
10:58 12.2 °C 3.2 °C 1024.9 hPa WNW 18.5 km/h 18.5 km/h 54 % 0.0 mm 396.0 W/m2 CLR
11:03 12.2 °C 3.2 °C 1024.9 hPa NW 18.5 km/h 18.5 km/h 54 % 0.0 mm 403.0 W/m2 CLR
11:08 12.8 °C 3.4 °C 1024.9 hPa WNW 18.5 km/h 18.5 km/h 53 % 0.0 mm 411.0 W/m2 CLR
11:13 12.8 °C 3.4 °C 1024.9 hPa North 20.4 km/h 20.6 km/h 53 % 0.0 mm 418.0 W/m2 CLR
11:18 12.8 °C 3.4 °C 1024.9 hPa NW 18.5 km/h 18.5 km/h 53 % 0.0 mm 424.0 W/m2 CLR
11:23 12.8 °C 3.2 °C 1024.9 hPa NNW 18.5 km/h 18.5 km/h 52 % 0.0 mm 432.0 W/m2 CLR
11:28 12.8 °C 3.2 °C 1024.9 hPa NW 18.5 km/h 18.5 km/h 52 % 0.0 mm 438.0 W/m2 CLR
11:33 12.8 °C 3.2 °C 1025.3 hPa NNW 18.5 km/h 18.5 km/h 52 % 0.0 mm 443.0 W/m2 CLR
11:38 13.3 °C 3.7 °C 1024.9 hPa WNW 18.5 km/h 18.5 km/h 52 % 0.0 mm 448.0 W/m2 CLR
11:43 13.3 °C 3.7 °C 1024.9 hPa NW 16.7 km/h 16.7 km/h 52 % 0.0 mm 452.0 W/m2 CLR
11:48 13.3 °C 3.7 °C 1024.9 hPa WNW 18.5 km/h 18.5 km/h 52 % 0.0 mm 459.0 W/m2 CLR
11:53 13.3 °C 3.7 °C 1024.9 hPa NW 16.7 km/h 16.7 km/h 52 % 0.0 mm 464.0 W/m2 CLR
11:58 13.3 °C 3.7 °C 1024.9 hPa NNW 14.8 km/h 14.8 km/h 52 % 0.0 mm 468.0 W/m2 CLR
12:03 13.9 °C 3.9 °C 1024.9 hPa NNW 22.2 km/h 22.2 km/h 51 % 0.0 mm 471.0 W/m2 CLR
12:08 13.9 °C 4.2 °C 1024.9 hPa North 16.7 km/h 16.7 km/h 52 % 0.0 mm 475.0 W/m2 CLR
12:13 13.9 °C 3.9 °C 1024.6 hPa North 20.4 km/h 20.4 km/h 51 % 0.0 mm 476.0 W/m2 CLR
12:18 13.9 °C 3.9 °C 1024.6 hPa North 25.9 km/h 25.9 km/h 51 % 0.0 mm 480.0 W/m2 CLR
12:23 13.9 °C 3.9 °C 1024.6 hPa North 14.8 km/h 14.8 km/h 51 % 0.0 mm 482.0 W/m2 CLR
12:28 13.9 °C 3.6 °C 1024.6 hPa NW 22.2 km/h 22.2 km/h 50 % 0.0 mm 483.0 W/m2 CLR
12:33 14.4 °C 4.2 °C 1024.6 hPa NNW 16.7 km/h 16.7 km/h 50 % 0.0 mm 485.0 W/m2 CLR
12:38 14.4 °C 3.8 °C 1024.3 hPa NW 20.9 km/h 20.9 km/h 49 % 0.0 mm 487.0 W/m2 CLR
12:43 14.4 °C 4.2 °C 1024.3 hPa NNW 24.1 km/h 24.1 km/h 50 % 0.0 mm 487.0 W/m2 CLR
12:48 14.4 °C 4.2 °C 1024.3 hPa North 20.9 km/h 20.9 km/h 50 % 0.0 mm 487.0 W/m2 CLR
12:53 14.4 °C 3.8 °C 1024.3 hPa NNW 18.5 km/h 18.5 km/h 49 % 0.0 mm 487.0 W/m2 CLR
12:58 14.4 °C 3.8 °C 1024.3 hPa NW 14.8 km/h 14.8 km/h 49 % 0.0 mm 485.0 W/m2 CLR
13:03 15.0 °C 4.4 °C 1024.3 hPa NNW 18.5 km/h 18.5 km/h 49 % 0.0 mm 485.0 W/m2 CLR
13:08 15.0 °C 4.4 °C 1024.3 hPa North 20.9 km/h 20.9 km/h 49 % 0.0 mm 482.0 W/m2 CLR
13:13 15.6 °C 4.9 °C 1024.3 hPa NW 14.8 km/h 14.8 km/h 49 % 0.0 mm 482.0 W/m2 CLR
13:18 15.0 °C 4.4 °C 1024.3 hPa NW 18.5 km/h 18.5 km/h 49 % 0.0 mm 480.0 W/m2 CLR
13:23 15.0 °C 4.4 °C 1023.9 hPa North 16.7 km/h 16.7 km/h 49 % 0.0 mm 476.0 W/m2 CLR
13:28 15.0 °C 4.4 °C 1024.3 hPa NNW 25.9 km/h 25.9 km/h 49 % 0.0 mm 475.0 W/m2 CLR
13:33 15.6 °C 4.6 °C 1023.9 hPa NW 18.5 km/h 18.5 km/h 48 % 0.0 mm 469.0 W/m2 CLR
13:38 15.6 °C 4.6 °C 1023.9 hPa WNW 16.7 km/h 16.7 km/h 48 % 0.0 mm 468.0 W/m2 CLR
13:43 15.6 °C 4.6 °C 1023.9 hPa West 9.3 km/h 9.3 km/h 48 % 0.0 mm 462.0 W/m2 CLR
13:48 15.6 °C 4.6 °C 1023.9 hPa North 14.8 km/h 14.8 km/h 48 % 0.0 mm 457.0 W/m2 CLR
13:53 16.1 °C 5.1 °C 1023.9 hPa NW 16.7 km/h 16.7 km/h 48 % 0.0 mm 452.0 W/m2 CLR
13:58 16.1 °C 4.8 °C 1023.6 hPa NNW 18.5 km/h 18.5 km/h 47 % 0.0 mm 445.0 W/m2 CLR
14:03 16.1 °C 4.8 °C 1023.6 hPa NW 18.5 km/h 18.5 km/h 47 % 0.0 mm 439.0 W/m2 CLR
14:09 16.1 °C 5.1 °C 1023.6 hPa NW 20.4 km/h 20.4 km/h 48 % 0.0 mm 434.0 W/m2 CLR
14:14 16.1 °C 5.1 °C 1023.6 hPa NW 18.5 km/h 18.5 km/h 48 % 0.0 mm 429.0 W/m2 CLR
14:19 15.6 °C 4.6 °C 1023.6 hPa North 18.5 km/h 18.5 km/h 48 % 0.0 mm 420.0 W/m2 CLR
14:24 16.1 °C 5.1 °C 1023.6 hPa NNW 14.8 km/h 14.8 km/h 48 % 0.0 mm 413.0 W/m2 CLR
14:29 16.1 °C 5.4 °C 1023.6 hPa WNW 14.8 km/h 14.8 km/h 49 % 0.0 mm 408.0 W/m2 CLR
14:34 16.1 °C 5.1 °C 1023.6 hPa NW 13.0 km/h 13.0 km/h 48 % 0.0 mm 399.0 W/m2 CLR
14:39 16.1 °C 5.1 °C 1023.2 hPa NW 18.5 km/h 18.5 km/h 48 % 0.0 mm 390.0 W/m2 CLR
14:44 16.1 °C 4.8 °C 1023.2 hPa NNW 18.5 km/h 18.5 km/h 47 % 0.0 mm 378.0 W/m2 CLR
14:49 16.1 °C 5.1 °C 1023.2 hPa NNW 14.8 km/h 14.8 km/h 48 % 0.0 mm 373.0 W/m2 CLR
14:54 16.1 °C 5.1 °C 1023.2 hPa NNW 18.5 km/h 18.5 km/h 48 % 0.0 mm 362.0 W/m2 CLR
14:59 16.1 °C 5.1 °C 1023.2 hPa NNW 18.5 km/h 18.5 km/h 48 % 0.0 mm 353.0 W/m2 CLR
15:04 16.1 °C 4.8 °C 1022.9 hPa NW 18.5 km/h 18.5 km/h 47 % 0.0 mm 345.0 W/m2 CLR
15:09 16.1 °C 5.1 °C 1023.2 hPa NNW 16.1 km/h 16.1 km/h 48 % 0.0 mm 334.0 W/m2 CLR
15:14 16.1 °C 5.1 °C 1023.2 hPa WNW 16.7 km/h 16.7 km/h 48 % 0.0 mm 323.0 W/m2 CLR
15:19 16.1 °C 5.4 °C 1023.2 hPa NW 13.0 km/h 13.0 km/h 49 % 0.0 mm 313.0 W/m2 CLR
15:24 16.1 °C 5.4 °C 1023.2 hPa NNW 14.5 km/h 14.5 km/h 49 % 0.0 mm 302.0 W/m2 CLR
15:29 16.1 °C 5.1 °C 1023.2 hPa NNW 18.5 km/h 18.5 km/h 48 % 0.0 mm 292.0 W/m2 CLR
15:34 16.1 °C 5.1 °C 1022.9 hPa North 18.5 km/h 18.5 km/h 48 % 0.0 mm 281.0 W/m2 CLR
15:39 16.1 °C 5.1 °C 1023.2 hPa NNE 13.0 km/h 13.0 km/h 48 % 0.0 mm 269.0 W/m2 CLR
15:44 16.1 °C 5.4 °C 1022.9 hPa NW 18.5 km/h 18.5 km/h 49 % 0.0 mm 255.0 W/m2 CLR
15:49 16.1 °C 5.4 °C 1022.9 hPa NNW 18.5 km/h 18.5 km/h 49 % 0.0 mm 241.0 W/m2 CLR
15:54 15.6 °C 4.6 °C 1022.9 hPa NW 13.0 km/h 13.0 km/h 48 % 0.0 mm 227.0 W/m2 CLR
15:59 15.6 °C 4.9 °C 1022.9 hPa NNW 13.0 km/h 13.0 km/h 49 % 0.0 mm 213.0 W/m2 CLR
16:04 15.6 °C 4.9 °C 1022.9 hPa NNW 13.0 km/h 13.0 km/h 49 % 0.0 mm 197.0 W/m2 CLR
16:09 15.0 °C 4.4 °C 1022.9 hPa NNW 13.0 km/h 13.0 km/h 49 % 0.0 mm 181.0 W/m2 CLR
16:14 15.0 °C 4.4 °C 1022.9 hPa NW 13.0 km/h 13.0 km/h 49 % 0.0 mm 167.0 W/m2 CLR
16:19 15.0 °C 4.4 °C 1023.2 hPa NNW 13.0 km/h 13.0 km/h 49 % 0.0 mm 153.0 W/m2 CLR
16:24 15.0 °C 4.7 °C 1023.2 hPa NNW 8.0 km/h 8.0 km/h 50 % 0.0 mm 135.0 W/m2 CLR
16:29 14.4 °C 4.2 °C 1023.2 hPa Calm     50 % 0.0 mm 120.0 W/m2 CLR
16:34 14.4 °C 4.2 °C 1023.2 hPa NNW 9.3 km/h 9.3 km/h 50 % 0.0 mm 107.0 W/m2 CLR
16:39 14.4 °C 4.2 °C 1023.2 hPa NNW 7.4 km/h   50 % 0.0 mm 93.0 W/m2 CLR
16:44 13.9 °C 3.6 °C 1023.2 hPa Calm     50 % 0.0 mm 81.0 W/m2 FEW
16:49 13.9 °C 3.9 °C 1023.2 hPa Calm     51 % 0.0 mm 62.0 W/m2 SCT
16:54 13.3 °C 3.4 °C 1023.2 hPa Calm     51 % 0.0 mm 53.0 W/m2 SCT
16:59 12.8 °C 2.9 °C 1023.2 hPa Calm     51 % 0.0 mm 40.0 W/m2 BKN
17:04 12.2 °C 2.7 °C 1023.2 hPa Calm     52 % 0.0 mm 32.0 W/m2 BKN
17:09 11.7 °C 2.4 °C 1023.2 hPa Calm     53 % 0.0 mm 23.0 W/m2 BKN
17:14 11.1 °C 1.9 °C 1023.6 hPa Calm     53 % 0.0 mm 18.0 W/m2 BKN
17:16 11.1 °C 1.9 °C 1023.6 hPa Calm     53 % 0.0 mm 16.0 W/m2 BKN
17:21 10.6 °C 1.6 °C 1023.6 hPa Calm     54 % 0.0 mm 12.0 W/m2 BKN
17:26 10.0 °C 1.4 °C 1023.6 hPa Calm     55 % 0.0 mm 11.0 W/m2 BKN
17:31 9.4 °C 0.8 °C 1023.6 hPa Calm     55 % 0.0 mm 9.0 W/m2 BKN
17:36 8.9 °C 0.6 °C 1023.6 hPa Calm     56 % 0.0 mm 5.0 W/m2 OVC
17:41 8.9 °C 0.6 °C 1023.6 hPa Calm     56 % 0.0 mm 0.0 W/m2 OVC
17:46 8.3 °C 0.3 °C 1023.6 hPa Calm     57 % 0.0 mm 0.0 W/m2 OVC
17:51 8.3 °C 0.3 °C 1023.6 hPa Calm     57 % 0.0 mm 0.0 W/m2 CLR
17:52 8.3 °C 0.3 °C 1023.6 hPa Calm     57 % 0.0 mm 0.0 W/m2 CLR
17:57 7.8 °C 0.3 °C 1023.6 hPa Calm     59 % 0.0 mm 0.0 W/m2 CLR
18:02 7.2 °C -0.5 °C 1023.9 hPa Calm     58 % 0.0 mm 0.0 W/m2 CLR
18:07 7.2 °C -0.3 °C 1023.9 hPa Calm     59 % 0.0 mm 0.0 W/m2 CLR
18:12 7.8 °C 0.5 °C 1023.9 hPa Calm     60 % 0.0 mm 0.0 W/m2 CLR
18:17 7.8 °C 0.7 °C 1023.9 hPa Calm     61 % 0.0 mm 0.0 W/m2 CLR
18:22 7.2 °C 0.4 °C 1023.9 hPa Calm     62 % 0.0 mm 0.0 W/m2 CLR
18:27 6.7 °C 0.1 °C 1023.9 hPa Calm     63 % 0.0 mm 0.0 W/m2 CLR
18:32 6.7 °C 0.1 °C 1024.3 hPa Calm     63 % 0.0 mm 0.0 W/m2 CLR
18:37 6.1 °C -0.2 °C 1024.3 hPa Calm     64 % 0.0 mm 0.0 W/m2 CLR
18:42 6.1 °C -0.2 °C 1024.3 hPa Calm     64 % 0.0 mm 0.0 W/m2 CLR
18:47 5.6 °C -0.5 °C 1024.3 hPa Calm     65 % 0.0 mm 0.0 W/m2 CLR
18:52 5.0 °C -0.8 °C 1024.3 hPa Calm     66 % 0.0 mm 0.0 W/m2 CLR
18:57 5.0 °C -0.6 °C 1024.6 hPa Calm     67 % 0.0 mm 0.0 W/m2 CLR
19:02 5.0 °C -0.4 °C 1024.6 hPa Calm     68 % 0.0 mm 0.0 W/m2 CLR
19:07 5.0 °C -0.2 °C 1024.6 hPa Calm     69 % 0.0 mm 0.0 W/m2 CLR
19:09 5.0 °C -0.2 °C 1024.6 hPa Calm     69 % 0.0 mm 0.0 W/m2 CLR
19:12 5.0 °C -0.2 °C 1024.6 hPa Calm     69 % 0.0 mm 0.0 W/m2 CLR
19:17 5.0 °C -0.2 °C 1024.6 hPa Calm     69 % 0.0 mm 0.0 W/m2 CLR
19:49 5.0 °C -0.2 °C 1024.6 hPa Calm     69 % 0.0 mm 0.0 W/m2 CLR
19:54 3.3 °C -1.1 °C 1024.9 hPa Calm     73 % 0.0 mm 0.0 W/m2 CLR
19:59 3.3 °C -1.1 °C 1024.9 hPa Calm     73 % 0.0 mm 0.0 W/m2 CLR
20:04 3.3 °C -1.1 °C 1024.9 hPa Calm     73 % 0.0 mm 0.0 W/m2 CLR
20:09 3.3 °C -0.9 °C 1024.9 hPa Calm     74 % 0.0 mm 0.0 W/m2 CLR
20:14 2.8 °C -1.4 °C 1024.9 hPa Calm     74 % 0.0 mm 0.0 W/m2 CLR
20:19 2.8 °C -1.4 °C 1024.9 hPa Calm     74 % 0.0 mm 0.0 W/m2 CLR
20:24 2.8 °C -1.4 °C 1024.9 hPa Calm     74 % 0.0 mm 0.0 W/m2 CLR
20:29 2.8 °C -1.2 °C 1025.3 hPa Calm     75 % 0.0 mm 0.0 W/m2 CLR
20:34 2.8 °C -1.2 °C 1025.3 hPa Calm     75 % 0.0 mm 0.0 W/m2 CLR
20:39 3.3 °C -0.7 °C 1024.9 hPa Calm     75 % 0.0 mm 0.0 W/m2 CLR
20:44 3.3 °C -0.5 °C 1024.9 hPa Calm     76 % 0.0 mm 0.0 W/m2 CLR
20:49 3.3 °C -0.3 °C 1025.3 hPa Calm     77 % 0.0 mm 0.0 W/m2 CLR
20:54 2.8 °C -0.8 °C 1025.3 hPa Calm     77 % 0.0 mm 0.0 W/m2 CLR
20:59 3.3 °C -0.3 °C 1025.3 hPa Calm     77 % 0.0 mm 0.0 W/m2 CLR
21:04 3.3 °C -0.5 °C 1025.3 hPa Calm     76 % 0.0 mm 0.0 W/m2 CLR
21:09 3.9 °C 0.4 °C 1025.6 hPa Calm     78 % 0.0 mm 0.0 W/m2 CLR
21:14 3.9 °C 0.6 °C 1025.6 hPa Calm     79 % 0.0 mm 0.0 W/m2 CLR
21:19 3.3 °C -0.2 °C 1025.6 hPa Calm     78 % 0.0 mm 0.0 W/m2 CLR
21:24 3.3 °C -0.2 °C 1025.6 hPa Calm     78 % 0.0 mm 0.0 W/m2 CLR
21:29 2.8 °C -0.8 °C 1025.6 hPa Calm     77 % 0.0 mm 0.0 W/m2 CLR
21:34 2.8 °C -0.7 °C 1025.6 hPa Calm     78 % 0.0 mm 0.0 W/m2 CLR
21:39 2.8 °C -0.7 °C 1025.6 hPa Calm     78 % 0.0 mm 0.0 W/m2 CLR
21:44 2.8 °C -0.5 °C 1025.6 hPa Calm     79 % 0.0 mm 0.0 W/m2 CLR
21:49 2.8 °C -0.3 °C 1025.6 hPa Calm     80 % 0.0 mm 0.0 W/m2 CLR
21:54 2.2 °C -1.1 °C 1025.6 hPa Calm     79 % 0.0 mm 0.0 W/m2 CLR
21:59 2.2 °C -0.9 °C 1025.6 hPa Calm     80 % 0.0 mm 0.0 W/m2 CLR
22:05 2.2 °C -0.9 °C 1025.6 hPa Calm     80 % 0.0 mm 0.0 W/m2 CLR
22:10 2.8 °C -0.3 °C 1025.6 hPa Calm     80 % 0.0 mm 0.0 W/m2 CLR
22:15 2.8 °C -0.3 °C 1025.6 hPa Calm     80 % 0.0 mm 0.0 W/m2 CLR
22:20 2.2 °C -0.9 °C 1025.6 hPa Calm     80 % 0.0 mm 0.0 W/m2 CLR
22:25 2.2 °C -0.9 °C 1025.6 hPa Calm     80 % 0.0 mm 0.0 W/m2 CLR
22:30 2.2 °C -1.1 °C 1025.6 hPa Calm     79 % 0.0 mm 0.0 W/m2 CLR
22:35 1.7 °C -1.4 °C 1026.0 hPa Calm     80 % 0.0 mm 0.0 W/m2 CLR
22:40 1.7 °C -1.4 °C 1026.0 hPa Calm     80 % 0.0 mm 0.0 W/m2 CLR
22:45 1.7 °C -1.2 °C 1026.0 hPa Calm     81 % 0.0 mm 0.0 W/m2 CLR
22:50 1.7 °C -1.1 °C 1026.0 hPa Calm     82 % 0.0 mm 0.0 W/m2 CLR
22:55 1.7 °C -1.2 °C 1026.0 hPa Calm     81 % 0.0 mm 0.0 W/m2 CLR
23:00 2.2 °C -0.4 °C 1026.0 hPa Calm     83 % 0.0 mm 0.0 W/m2 CLR
23:05 1.7 °C -1.1 °C 1026.0 hPa Calm     82 % 0.0 mm 0.0 W/m2 CLR
23:10 1.7 °C -1.2 °C 1026.0 hPa Calm     81 % 0.0 mm 0.0 W/m2 CLR
23:15 1.7 °C -1.1 °C 1026.0 hPa Calm     82 % 0.0 mm 0.0 W/m2 CLR
23:20 1.7 °C -1.1 °C 1026.0 hPa Calm     82 % 0.0 mm 0.0 W/m2 CLR
23:25 2.2 °C -0.7 °C 1026.0 hPa Calm     81 % 0.0 mm 0.0 W/m2 CLR
23:30 1.7 °C -1.1 °C 1026.0 hPa Calm     82 % 0.0 mm 0.0 W/m2 CLR
23:35 1.7 °C -0.9 °C 1026.0 hPa Calm     83 % 0.0 mm 0.0 W/m2 CLR
23:40 1.7 °C -0.7 °C 1026.0 hPa Calm     84 % 0.0 mm 0.0 W/m2 CLR
23:45 1.1 °C -1.3 °C 1026.0 hPa Calm     84 % 0.0 mm 0.0 W/m2 CLR
23:50 1.1 °C -1.3 °C 1026.0 hPa Calm     84 % 0.0 mm 0.0 W/m2 CLR
23:55 1.1 °C -1.1 °C 1026.0 hPa Calm     85 % 0.0 mm 0.0 W/m2 CLR
Lo Temps de Massalio
Compliments of Weather Underground - 1.25 mb